VECC Airport Information

Runway Information
Runway 01L Length 7871 ft width 150 ft
Elevation 19 ft Threshold 0 ft Heading 6
Runway 19R Length 7871 ft Width 150 ft
Elevation 19 ft Threshold 0 ft Heading 186
Runway 01R Length 11900 ft width 150 ft
Elevation 20 ft Threshold 0 ft Heading 6
Runway 19L Length 11900 ft Width 150 ft
Elevation 19 ft Threshold 1390 ft Heading 186
Airport Frequencies
Type A/G Name KOLKATA RD Frequency 127.3 MHZ
Type ACC Name KOLKATA CO Frequency 119.3 MHZ
Type APP Name KOLKATA AP Frequency 127.9 MHZ
Type APP CONTRO Name KOLKATA CO Frequency 132.45 MHZ
Type ATIS Name ATIS Frequency 126.4 MHZ
Type GND Name KOLKATA GN Frequency 121.9 MHZ
Type RADAR Name Feeder ARE Frequency 127.3 MHZ
Type TWR Name KOLKATA TW Frequency 118.1 MHZ
Airport Navaids
Type VOR-DME Name Kolkata Frequency 112500 KHZ
Type NDB Name Kolkata Frequency 385 KHZ
Airport Weather Information & NOTAM
ADDS - METARS form results

(2323 UTC 24 March 2019)
Data provider http://aviationweather.gov/metar/data/
 
METAR text: VECC 242300Z 24003KT 3000 HZ NSC 21/17 Q1010 NOSIG
Conditions at: VECC (CALCUTTA/DUM DUM, IN) observed 2300 UTC 24 March 2019
Temperature: 21.0°C (70°F)
Dewpoint: 17.0°C (63°F) [RH = 78%]
Pressure (altimeter): 29.82 inches Hg (1010.0 mb)
Winds: from the WSW (240 degrees) at 3 MPH (3 knots; 1.5 m/s)
Visibility: 1.86 miles (2.99 km)
Ceiling: at least 12,000 feet AGL
Clouds: sky clear below 12,000 feet AGL
Weather: HZ  (haze)

METAR text: VECC 242230Z 00000KT 3000 HZ NSC 21/17 Q1009 NOSIG
Conditions at: VECC (CALCUTTA/DUM DUM, IN) observed 2230 UTC 24 March 2019
Temperature: 21.0°C (70°F)
Dewpoint: 17.0°C (63°F) [RH = 78%]
Pressure (altimeter): 29.79 inches Hg (1009.0 mb)
Winds: calm
Visibility: 1.86 miles (2.99 km)
Ceiling: at least 12,000 feet AGL
Clouds: sky clear below 12,000 feet AGL
Weather: HZ  (haze)

Forecast for: VECC (CALCUTTA/DUM DUM, IN)
Text: TAF VECC 242000Z 2421/2506 00000KT 2500 HZ NSC
Forecast period: 2100 UTC 24 March 2019 to 0300 UTC 25 March 2019
Forecast type: FROM: standard forecast or significant change
Winds: calm
Visibility: 1.55 miles (2.49 km)
Ceiling: unknown
Clouds: missing
Weather: HZ  (haze)
Text: BECMG 2503/2505 21005KT 3900 HZ
Forecast period: 0300 to 0600 UTC 25 March 2019
Forecast type: BECOMING: Conditions expected to become as follows by 0500 UTC 25 March 2019
Winds: from the SSW (210 degrees) at 6 MPH (5 knots; 2.6 m/s)
Visibility: 2.42 miles (3.89 km)
Ceiling: unknown
Clouds: missing
Weather: HZ  (haze)